createdAt,value
2023-11-05T00:02:11.013Z,4.90
2023-11-05T00:04:37.231Z,3.07
2023-11-05T00:07:03.552Z,3.90
2023-11-05T00:09:29.758Z,4.40
2023-11-05T00:11:55.959Z,4.67
2023-11-05T00:14:22.163Z,5.00
2023-11-05T00:16:48.373Z,4.50
2023-11-05T00:19:14.593Z,3.43
2023-11-05T00:21:40.812Z,2.50
2023-11-05T00:24:06.995Z,5.83
2023-11-05T00:26:33.162Z,4.90
2023-11-05T00:28:59.371Z,3.37
2023-11-05T00:31:25.586Z,5.03
2023-11-05T00:33:51.950Z,2.67
2023-11-05T00:36:18.201Z,5.10
2023-11-05T00:38:44.494Z,6.10
2023-11-05T00:41:10.710Z,5.70
2023-11-05T00:43:36.886Z,4.53
2023-11-05T00:46:03.113Z,3.47
2023-11-05T00:48:29.318Z,3.40
2023-11-05T00:50:56.562Z,4.83
2023-11-05T00:53:22.776Z,3.63
2023-11-05T00:55:48.960Z,4.67
2023-11-05T00:58:15.152Z,5.40
2023-11-05T01:00:41.365Z,6.23
2023-11-05T01:03:07.694Z,7.13
2023-11-05T01:05:33.944Z,4.43
2023-11-05T01:08:00.120Z,5.70
2023-11-05T01:10:26.297Z,3.63
2023-11-05T01:12:52.548Z,5.30
2023-11-05T01:15:18.857Z,5.27
2023-11-05T01:17:45.117Z,8.03
2023-11-05T01:20:11.309Z,6.13
2023-11-05T01:22:37.538Z,4.50
2023-11-05T01:25:03.912Z,5.37
2023-11-05T01:27:30.162Z,6.97
2023-11-05T01:29:56.347Z,5.20
2023-11-05T01:32:22.548Z,6.73
2023-11-05T01:34:48.744Z,6.47
2023-11-05T01:37:14.999Z,7.53
2023-11-05T01:39:41.217Z,5.57
2023-11-05T01:42:07.385Z,5.07
2023-11-05T01:44:33.565Z,5.93
2023-11-05T01:46:59.725Z,7.67
2023-11-05T01:49:25.944Z,9.57
2023-11-05T01:51:52.161Z,5.30
2023-11-05T01:54:18.367Z,5.63
2023-11-05T01:56:44.622Z,7.00
2023-11-05T01:59:10.796Z,9.73
2023-11-05T02:01:36.995Z,5.27
2023-11-05T02:04:03.320Z,6.67
2023-11-05T02:06:29.513Z,9.57
2023-11-05T02:08:55.672Z,6.37
2023-11-05T02:11:21.850Z,6.87
2023-11-05T02:13:48.035Z,6.50
2023-11-05T02:16:14.252Z,7.27
2023-11-05T02:18:40.449Z,7.40
2023-11-05T02:21:06.645Z,4.67
2023-11-05T02:23:32.828Z,6.93
2023-11-05T02:25:59.019Z,7.33
2023-11-05T02:28:25.225Z,8.83
2023-11-05T02:30:51.441Z,9.57
2023-11-05T02:33:17.651Z,10.00
2023-11-05T02:35:43.856Z,6.53
2023-11-05T02:38:10.032Z,7.20
2023-11-05T02:40:36.248Z,8.37
2023-11-05T02:43:02.542Z,8.07
2023-11-05T02:45:28.820Z,8.87
2023-11-05T02:47:55.112Z,6.73
2023-11-05T02:50:21.473Z,8.00
2023-11-05T02:52:47.714Z,10.13
2023-11-05T02:55:13.912Z,8.67
2023-11-05T02:57:40.120Z,4.83
2023-11-05T03:00:06.286Z,8.43
2023-11-05T03:02:32.545Z,7.60
2023-11-05T03:04:58.858Z,7.27
2023-11-05T03:07:25.184Z,6.13
2023-11-05T03:09:51.370Z,5.27
2023-11-05T03:12:17.717Z,4.57
2023-11-05T03:14:43.891Z,4.67
2023-11-05T03:17:10.343Z,4.53
2023-11-05T03:19:36.523Z,5.30
2023-11-05T03:22:02.904Z,3.60
2023-11-05T03:24:29.103Z,2.83
2023-11-05T03:26:55.273Z,3.10
2023-11-05T03:29:21.438Z,3.60
2023-11-05T03:31:47.633Z,3.30
2023-11-05T03:34:13.863Z,3.67
2023-11-05T03:36:40.040Z,3.90
2023-11-05T03:39:06.215Z,2.67
2023-11-05T03:41:32.406Z,4.40
2023-11-05T03:43:58.566Z,3.57
2023-11-05T03:46:24.769Z,2.40
2023-11-05T03:48:50.965Z,5.00
2023-11-05T03:51:17.202Z,3.07
2023-11-05T03:53:43.386Z,2.73
2023-11-05T03:56:09.654Z,2.47
2023-11-05T03:58:35.928Z,3.17
2023-11-05T04:01:02.107Z,1.83
2023-11-05T04:03:28.406Z,2.57
2023-11-05T04:05:54.608Z,2.70
2023-11-05T04:08:20.791Z,3.70
2023-11-05T04:10:46.974Z,2.33
2023-11-05T04:13:13.187Z,1.80
2023-11-05T04:15:39.336Z,3.00
2023-11-05T04:18:05.558Z,2.67
2023-11-05T04:20:31.836Z,3.23
2023-11-05T04:22:58.005Z,1.80
2023-11-05T04:25:24.205Z,1.60
2023-11-05T04:27:50.409Z,3.00
2023-11-05T04:30:16.603Z,2.40
2023-11-05T04:32:42.889Z,2.47
2023-11-05T04:35:09.074Z,2.27
2023-11-05T04:37:35.270Z,1.37
2023-11-05T04:40:01.470Z,2.93
2023-11-05T04:42:27.645Z,1.33
2023-11-05T04:44:53.810Z,3.27
2023-11-05T04:47:20.013Z,2.70
2023-11-05T04:49:46.235Z,1.33
2023-11-05T04:52:12.495Z,1.23
2023-11-05T04:54:38.670Z,2.53
2023-11-05T04:57:04.867Z,1.93
2023-11-05T04:59:31.044Z,2.97
2023-11-05T05:01:57.195Z,3.33
2023-11-05T05:04:23.399Z,2.83
2023-11-05T05:06:49.636Z,1.80
2023-11-05T05:09:15.807Z,2.00
2023-11-05T05:11:41.978Z,1.80
2023-11-05T05:14:08.163Z,3.07
2023-11-05T05:16:34.390Z,1.03
2023-11-05T05:19:00.626Z,2.20
2023-11-05T05:21:26.825Z,1.87
2023-11-05T05:23:52.993Z,1.63
2023-11-05T05:26:20.516Z,2.07
2023-11-05T05:28:46.968Z,2.23
2023-11-05T05:31:13.179Z,1.33
2023-11-05T05:33:39.368Z,2.60
2023-11-05T05:36:05.518Z,1.73
2023-11-05T05:38:31.750Z,0.90
2023-11-05T05:40:57.904Z,1.37
2023-11-05T05:43:24.095Z,1.70
2023-11-05T05:45:50.350Z,2.27
2023-11-05T05:48:16.570Z,1.90
2023-11-05T05:50:42.803Z,1.67
2023-11-05T05:53:09.016Z,2.17
2023-11-05T05:55:35.266Z,1.00
2023-11-05T05:58:01.451Z,1.20
2023-11-05T06:00:27.645Z,1.17
2023-11-05T06:02:53.990Z,2.33
2023-11-05T06:05:20.247Z,1.10
2023-11-05T06:07:46.464Z,0.70
2023-11-05T06:10:12.679Z,1.83
2023-11-05T06:12:38.908Z,1.93
2023-11-05T06:15:11.323Z,2.23
2023-11-05T06:17:38.670Z,1.80
2023-11-05T06:20:04.956Z,1.37
2023-11-05T06:22:31.144Z,1.77
2023-11-05T06:24:57.351Z,2.50
2023-11-05T06:27:23.513Z,1.07
2023-11-05T06:29:49.698Z,1.43
2023-11-05T06:32:15.865Z,1.00
2023-11-05T06:34:42.098Z,2.00
2023-11-05T06:37:08.279Z,1.67
2023-11-05T06:39:34.573Z,1.63
2023-11-05T06:42:00.723Z,1.47
2023-11-05T06:44:26.906Z,2.57
2023-11-05T06:46:54.324Z,0.87
2023-11-05T06:49:20.755Z,1.40
2023-11-05T06:51:46.932Z,1.97
2023-11-05T06:54:13.130Z,0.83
2023-11-05T06:56:39.328Z,1.33
2023-11-05T06:59:05.565Z,1.70
2023-11-05T07:01:31.801Z,1.13
2023-11-05T07:03:58.056Z,0.90
2023-11-05T07:06:24.307Z,2.27
2023-11-05T07:08:50.475Z,1.20
2023-11-05T07:11:16.652Z,2.23
2023-11-05T07:13:42.860Z,0.73
2023-11-05T07:16:09.104Z,2.53
2023-11-05T07:18:35.352Z,1.67
2023-11-05T07:21:01.629Z,1.70
2023-11-05T07:23:27.847Z,0.70
2023-11-05T07:25:54.029Z,1.03
2023-11-05T07:28:20.216Z,0.93
2023-11-05T07:30:46.442Z,4.97
2023-11-05T07:33:12.609Z,1.30
2023-11-05T07:35:38.810Z,0.53
2023-11-05T07:38:04.981Z,1.80
2023-11-05T07:40:31.189Z,0.60
2023-11-05T07:42:57.372Z,2.33
2023-11-05T07:45:23.553Z,1.07
2023-11-05T07:47:50.267Z,0.80
2023-11-05T07:50:16.476Z,1.37
2023-11-05T07:52:42.788Z,2.57
2023-11-05T07:55:09.012Z,1.53
2023-11-05T07:57:35.186Z,1.37
2023-11-05T08:00:01.375Z,1.27
2023-11-05T08:02:27.564Z,1.07
2023-11-05T08:04:53.817Z,0.93
2023-11-05T08:07:20.079Z,2.90
2023-11-05T08:09:46.332Z,0.70
2023-11-05T08:12:12.525Z,1.63
2023-11-05T08:14:38.710Z,1.30
2023-11-05T08:17:04.897Z,1.00
2023-11-05T08:19:31.095Z,2.00
2023-11-05T08:21:57.345Z,2.57
2023-11-05T08:24:23.522Z,0.80
2023-11-05T08:26:49.700Z,0.50
2023-11-05T08:29:16.060Z,1.20
2023-11-05T08:31:44.553Z,0.67
2023-11-05T08:34:11.479Z,1.60
2023-11-05T08:36:37.693Z,2.57
2023-11-05T08:39:03.884Z,0.47
2023-11-05T08:41:30.052Z,1.77
2023-11-05T08:43:56.282Z,0.90
2023-11-05T08:46:22.494Z,0.57
2023-11-05T08:48:48.871Z,0.50
2023-11-05T08:51:15.105Z,0.80
2023-11-05T08:53:41.321Z,0.70
2023-11-05T08:56:07.493Z,1.03
2023-11-05T08:58:33.718Z,1.30
2023-11-05T09:00:59.938Z,1.13
2023-11-05T09:03:26.266Z,0.80
2023-11-05T09:05:52.448Z,1.63
2023-11-05T09:08:18.616Z,1.10
2023-11-05T09:10:44.827Z,0.97
2023-11-05T09:13:11.086Z,0.83
2023-11-05T09:15:37.255Z,1.23
2023-11-05T09:18:03.502Z,1.33
2023-11-05T09:20:32.294Z,0.87
2023-11-05T09:22:59.929Z,1.00
2023-11-05T09:25:26.171Z,0.60
2023-11-05T09:27:52.358Z,2.00
2023-11-05T09:30:18.551Z,1.10
2023-11-05T09:32:44.971Z,0.97
2023-11-05T09:35:11.374Z,0.67
2023-11-05T09:37:37.601Z,0.77
2023-11-05T09:40:03.816Z,0.57
2023-11-05T09:42:29.982Z,0.70
2023-11-05T09:44:56.147Z,0.50
2023-11-05T09:47:22.352Z,2.20
2023-11-05T09:49:48.625Z,0.80
2023-11-05T09:52:14.919Z,1.20
2023-11-05T09:54:41.238Z,2.00
2023-11-05T09:57:07.527Z,1.23
2023-11-05T09:59:33.754Z,1.03
2023-11-05T10:01:59.916Z,1.20
2023-11-05T10:04:26.172Z,1.70
2023-11-05T10:06:52.405Z,0.90
2023-11-05T10:09:18.602Z,0.97
2023-11-05T10:11:44.795Z,1.50
2023-11-05T10:14:10.996Z,1.63
2023-11-05T10:16:37.196Z,1.73
2023-11-05T10:19:03.387Z,1.83
2023-11-05T10:21:29.648Z,3.23
2023-11-05T10:23:55.939Z,4.10
2023-11-05T10:26:22.159Z,2.27
2023-11-05T10:28:48.445Z,3.23
2023-11-05T10:31:14.712Z,2.60
2023-11-05T10:33:41.122Z,2.80
2023-11-05T10:36:07.370Z,5.03
2023-11-05T10:38:33.610Z,3.87
2023-11-05T10:40:59.937Z,3.13
2023-11-05T10:43:26.294Z,3.50
2023-11-05T10:45:52.582Z,2.43
2023-11-05T10:48:18.918Z,3.07
2023-11-05T10:50:45.161Z,3.27
2023-11-05T10:53:11.405Z,4.43
2023-11-05T10:55:37.868Z,2.97
2023-11-05T10:58:14.258Z,2.10
2023-11-05T11:00:47.071Z,1.77
2023-11-05T11:03:13.365Z,2.27
2023-11-05T11:05:39.704Z,2.97
2023-11-05T11:08:05.972Z,3.23
2023-11-05T11:10:32.216Z,3.83
2023-11-05T11:12:58.759Z,5.67
2023-11-05T11:15:24.973Z,2.23
2023-11-05T11:17:51.211Z,4.87
2023-11-05T11:20:17.444Z,2.20
2023-11-05T11:22:43.686Z,2.97
2023-11-05T11:25:09.940Z,3.17
2023-11-05T11:27:36.158Z,1.83
2023-11-05T11:30:02.401Z,1.73
2023-11-05T11:32:28.635Z,1.40
2023-11-05T11:34:54.905Z,6.17
2023-11-05T11:37:21.234Z,2.07
2023-11-05T11:39:47.476Z,1.87
2023-11-05T11:42:13.717Z,1.90
2023-11-05T11:44:39.922Z,1.80
2023-11-05T11:47:06.249Z,3.33
2023-11-05T11:49:32.457Z,1.83
2023-11-05T11:51:58.674Z,2.30
2023-11-05T11:54:24.978Z,2.23
2023-11-05T11:56:51.240Z,2.10
2023-11-05T11:59:17.403Z,3.00
2023-11-05T12:01:43.685Z,3.83
2023-11-05T12:04:09.922Z,2.93
2023-11-05T12:06:36.137Z,3.20
2023-11-05T12:09:02.324Z,2.30
2023-11-05T12:11:28.517Z,2.07
2023-11-05T12:13:54.712Z,3.30
2023-11-05T12:16:20.941Z,3.10
2023-11-05T12:18:47.159Z,2.70
2023-11-05T12:21:13.356Z,1.30
2023-11-05T12:23:39.631Z,2.83
2023-11-05T12:26:05.867Z,2.20
2023-11-05T12:28:32.022Z,3.50
2023-11-05T12:30:58.220Z,2.73
2023-11-05T12:33:24.415Z,2.17
2023-11-05T12:35:50.610Z,3.10
2023-11-05T12:38:16.807Z,2.47
2023-11-05T12:40:45.395Z,2.60
2023-11-05T12:43:12.854Z,3.20
2023-11-05T12:45:39.018Z,2.27
2023-11-05T12:48:05.292Z,2.73
2023-11-05T12:50:31.500Z,5.50
2023-11-05T12:52:57.719Z,4.07
2023-11-05T12:55:23.902Z,3.30
2023-11-05T12:57:50.122Z,2.80
2023-11-05T13:00:16.318Z,2.47
2023-11-05T13:02:42.701Z,2.10
2023-11-05T13:05:09.161Z,3.00
2023-11-05T13:07:35.472Z,2.03
2023-11-05T13:10:01.672Z,3.60
2023-11-05T13:12:27.901Z,4.30
2023-11-05T13:14:54.079Z,3.10
2023-11-05T13:17:20.274Z,4.00
2023-11-05T13:19:46.440Z,3.87
2023-11-05T13:22:12.667Z,4.10
2023-11-05T13:24:38.859Z,3.03
2023-11-05T13:27:05.067Z,4.47
2023-11-05T13:29:31.279Z,4.47
2023-11-05T13:31:57.515Z,4.63
2023-11-05T13:34:23.729Z,6.60
2023-11-05T13:36:49.970Z,6.00
2023-11-05T13:39:16.154Z,6.47
2023-11-05T13:41:42.322Z,7.03
2023-11-05T13:44:08.597Z,5.73
2023-11-05T13:46:34.930Z,5.17
2023-11-05T13:49:01.178Z,8.97
2023-11-05T13:51:27.465Z,9.37
2023-11-05T13:53:53.646Z,6.10
2023-11-05T13:56:19.797Z,7.73
2023-11-05T13:58:46.013Z,7.27
2023-11-05T14:01:12.205Z,7.10
2023-11-05T14:03:38.395Z,4.83
2023-11-05T14:06:04.586Z,5.73
2023-11-05T14:08:30.780Z,7.57
2023-11-05T14:10:56.969Z,6.57
2023-11-05T14:13:23.285Z,6.80
2023-11-05T14:15:49.474Z,8.87
2023-11-05T14:18:15.757Z,7.00
2023-11-05T14:20:41.977Z,6.70
2023-11-05T14:23:08.153Z,9.10
2023-11-05T14:25:34.402Z,8.33
2023-11-05T14:28:00.613Z,9.57
2023-11-05T14:30:26.785Z,7.20
2023-11-05T14:32:52.972Z,7.13
2023-11-05T14:35:19.524Z,9.33
2023-11-05T14:37:45.701Z,6.97
2023-11-05T14:40:11.916Z,6.40
2023-11-05T14:42:38.088Z,7.73
2023-11-05T14:45:12.098Z,6.03
2023-11-05T14:47:46.000Z,7.00
2023-11-05T14:50:12.577Z,10.07
2023-11-05T14:52:39.022Z,6.23
2023-11-05T14:55:05.255Z,6.03
2023-11-05T14:57:31.441Z,6.80
2023-11-05T14:59:57.615Z,6.43
2023-11-05T15:02:23.798Z,5.13
2023-11-05T15:04:50.079Z,8.50
2023-11-05T15:07:16.307Z,5.93
2023-11-05T15:09:42.479Z,8.83
2023-11-05T15:12:18.750Z,6.10
2023-11-05T15:14:47.521Z,6.13
2023-11-05T15:17:13.703Z,8.40
2023-11-05T15:19:39.897Z,6.53
2023-11-05T15:22:06.133Z,6.43
2023-11-05T15:24:32.302Z,7.53
2023-11-05T15:26:58.520Z,7.70
2023-11-05T15:29:24.710Z,6.93
2023-11-05T15:31:50.998Z,8.87
2023-11-05T15:34:17.194Z,6.83
2023-11-05T15:36:43.434Z,5.13
2023-11-05T15:39:09.610Z,5.53
2023-11-05T15:41:35.793Z,5.60
2023-11-05T15:44:02.010Z,5.23
2023-11-05T15:46:28.329Z,3.53
2023-11-05T15:48:54.592Z,5.00
2023-11-05T15:51:20.800Z,6.60
2023-11-05T15:53:46.966Z,4.57
2023-11-05T15:56:13.157Z,3.87
2023-11-05T15:58:39.420Z,5.67
2023-11-05T16:01:05.640Z,5.37
2023-11-05T16:03:31.974Z,4.70
2023-11-05T16:05:58.307Z,5.73
2023-11-05T16:08:24.528Z,5.47
2023-11-05T16:10:50.750Z,6.00
2023-11-05T16:13:18.838Z,6.80
2023-11-05T16:15:46.615Z,5.00
2023-11-05T16:18:12.895Z,6.70
2023-11-05T16:20:39.068Z,5.40
2023-11-05T16:23:05.331Z,13.63
2023-11-05T16:25:31.558Z,5.27
2023-11-05T16:27:57.773Z,5.97
2023-11-05T16:30:23.978Z,7.57
2023-11-05T16:32:50.286Z,4.83
2023-11-05T16:35:16.564Z,7.10
2023-11-05T16:37:42.759Z,7.40
2023-11-05T16:40:08.958Z,6.73
2023-11-05T16:42:35.164Z,7.03
2023-11-05T16:45:01.336Z,9.17
2023-11-05T16:47:27.615Z,7.13
2023-11-05T16:49:53.916Z,9.70
2023-11-05T16:52:20.100Z,8.83
2023-11-05T16:54:46.261Z,10.70
2023-11-05T16:57:12.463Z,9.20
2023-11-05T16:59:38.630Z,8.63
2023-11-05T17:02:04.931Z,6.40
2023-11-05T17:04:31.285Z,9.03
2023-11-05T17:06:57.549Z,7.53
2023-11-05T17:09:23.750Z,10.73
2023-11-05T17:11:49.934Z,5.40
2023-11-05T17:14:16.168Z,7.13
2023-11-05T17:16:44.028Z,8.17
2023-11-05T17:19:12.329Z,7.93
2023-11-05T17:21:38.486Z,7.57
2023-11-05T17:24:04.667Z,9.60
2023-11-05T17:26:30.869Z,7.00
2023-11-05T17:28:57.118Z,8.60
2023-11-05T17:31:23.301Z,5.90
2023-11-05T17:33:49.530Z,8.03
2023-11-05T17:36:15.864Z,8.80
2023-11-05T17:38:42.083Z,9.93
2023-11-05T17:41:08.299Z,5.77
2023-11-05T17:43:34.505Z,6.53
2023-11-05T17:46:00.690Z,5.93
2023-11-05T17:48:26.983Z,5.73
2023-11-05T17:50:53.222Z,5.93
2023-11-05T17:53:19.411Z,5.83
2023-11-05T17:55:45.591Z,7.90
2023-11-05T17:58:11.800Z,7.93
2023-11-05T18:00:37.991Z,4.80
2023-11-05T18:03:04.218Z,6.77
2023-11-05T18:05:30.542Z,5.17
2023-11-05T18:07:57.394Z,5.40
2023-11-05T18:10:28.463Z,5.30
2023-11-05T18:12:54.720Z,5.87
2023-11-05T18:15:21.061Z,5.27
2023-11-05T18:17:47.298Z,3.40
2023-11-05T18:20:13.636Z,5.17
2023-11-05T18:22:39.947Z,4.83
2023-11-05T18:25:06.214Z,5.83
2023-11-05T18:27:32.368Z,8.40
2023-11-05T18:29:58.536Z,5.77
2023-11-05T18:32:24.752Z,6.17
2023-11-05T18:34:51.001Z,5.03
2023-11-05T18:37:17.223Z,5.33
2023-11-05T18:39:43.413Z,4.10
2023-11-05T18:42:09.637Z,4.70
2023-11-05T18:44:35.817Z,3.50
2023-11-05T18:47:02.017Z,4.20
2023-11-05T18:49:28.269Z,7.27
2023-11-05T18:51:56.407Z,5.37
2023-11-05T18:54:23.871Z,3.37
2023-11-05T18:56:50.175Z,5.30
2023-11-05T18:59:16.358Z,3.10
2023-11-05T19:01:42.594Z,4.97
2023-11-05T19:04:08.904Z,3.50
2023-11-05T19:06:35.142Z,4.30
2023-11-05T19:09:01.458Z,5.07
2023-11-05T19:11:27.655Z,3.23
2023-11-05T19:14:06.365Z,2.40
2023-11-05T19:16:39.496Z,4.60
2023-11-05T19:19:05.788Z,4.30
2023-11-05T19:21:32.069Z,4.17
2023-11-05T19:23:58.259Z,3.00
2023-11-05T19:26:24.505Z,4.77
2023-11-05T19:28:50.701Z,4.10
2023-11-05T19:31:16.896Z,3.83
2023-11-05T19:33:43.178Z,5.13
2023-11-05T19:36:09.431Z,4.13
2023-11-05T19:38:35.588Z,4.50
2023-11-05T19:41:01.819Z,2.67
2023-11-05T19:43:28.032Z,4.20
2023-11-05T19:45:54.210Z,2.77
2023-11-05T19:48:20.382Z,2.97
2023-11-05T19:50:46.638Z,3.70
2023-11-05T19:53:15.060Z,4.33
2023-11-05T19:55:42.517Z,3.93
2023-11-05T19:58:09.549Z,6.67
2023-11-05T20:00:36.818Z,5.03
2023-11-05T20:03:03.181Z,5.03
2023-11-05T20:05:29.552Z,6.87
2023-11-05T20:07:55.832Z,6.17
2023-11-05T20:10:22.026Z,4.00
2023-11-05T20:12:48.234Z,3.23
2023-11-05T20:15:14.408Z,8.63
2023-11-05T20:17:40.616Z,5.63
2023-11-05T20:20:06.951Z,5.07
2023-11-05T20:22:33.123Z,4.97
2023-11-05T20:24:59.312Z,4.47
2023-11-05T20:27:25.569Z,8.80
2023-11-05T20:29:51.804Z,5.10
2023-11-05T20:32:18.045Z,4.47
2023-11-05T20:34:44.318Z,5.47
2023-11-05T20:37:10.587Z,5.00
2023-11-05T20:39:36.772Z,8.00
2023-11-05T20:42:02.983Z,8.17
2023-11-05T20:44:29.157Z,5.27
2023-11-05T20:46:55.355Z,4.47
2023-11-05T20:49:21.562Z,5.67
2023-11-05T20:51:48.244Z,6.33
2023-11-05T20:54:14.484Z,7.00
2023-11-05T20:56:40.719Z,4.50
2023-11-05T20:59:06.998Z,7.13
2023-11-05T21:01:33.211Z,5.00
2023-11-05T21:03:59.399Z,6.00
2023-11-05T21:06:25.567Z,7.70
2023-11-05T21:08:51.760Z,5.83
2023-11-05T21:11:18.033Z,4.83
2023-11-05T21:13:45.408Z,4.17
2023-11-05T21:16:11.636Z,6.73
2023-11-05T21:18:37.896Z,7.03
2023-11-05T21:21:04.212Z,7.20
2023-11-05T21:23:30.392Z,5.77
2023-11-05T21:25:56.612Z,6.93
2023-11-05T21:28:22.823Z,5.43
2023-11-05T21:30:49.063Z,4.37
2023-11-05T21:33:15.265Z,4.17
2023-11-05T21:35:41.500Z,3.83
2023-11-05T21:38:07.704Z,7.97
2023-11-05T21:40:33.934Z,5.43
2023-11-05T21:43:00.077Z,3.70
2023-11-05T21:45:26.273Z,4.43
2023-11-05T21:47:52.554Z,6.13
2023-11-05T21:50:18.834Z,7.33
2023-11-05T21:52:45.135Z,5.03
2023-11-05T21:55:11.357Z,7.60
2023-11-05T21:57:37.529Z,3.83
2023-11-05T22:00:03.738Z,6.23
2023-11-05T22:02:29.890Z,3.90
2023-11-05T22:04:56.168Z,5.77
2023-11-05T22:07:22.428Z,4.43
2023-11-05T22:09:49.625Z,4.63
2023-11-05T22:12:15.983Z,4.20
2023-11-05T22:14:42.934Z,7.37
2023-11-05T22:17:11.803Z,4.97
2023-11-05T22:19:38.220Z,4.87
2023-11-05T22:22:06.985Z,4.80
2023-11-05T22:24:33.284Z,3.43
2023-11-05T22:26:59.675Z,5.50
2023-11-05T22:29:28.247Z,7.77
2023-11-05T22:31:54.692Z,5.90
2023-11-05T22:34:20.981Z,6.30
2023-11-05T22:36:47.420Z,8.33
2023-11-05T22:39:13.678Z,5.30
2023-11-05T22:41:39.941Z,6.20
2023-11-05T22:44:06.222Z,8.03
2023-11-05T22:46:32.538Z,6.10
2023-11-05T22:48:58.848Z,6.33
2023-11-05T22:51:25.184Z,5.23
2023-11-05T22:53:51.444Z,6.03
2023-11-05T22:56:17.864Z,7.17
2023-11-05T22:58:44.260Z,5.53
2023-11-05T23:01:10.487Z,4.73
2023-11-05T23:03:36.706Z,9.57
2023-11-05T23:06:02.922Z,5.87
2023-11-05T23:08:29.332Z,4.50
2023-11-05T23:10:55.532Z,4.87
2023-11-05T23:13:21.801Z,6.03
2023-11-05T23:15:48.179Z,4.47
2023-11-05T23:18:14.536Z,6.00
2023-11-05T23:20:40.767Z,5.30
2023-11-05T23:23:07.060Z,6.37
2023-11-05T23:25:38.650Z,5.90
2023-11-05T23:28:07.508Z,6.70
2023-11-05T23:30:33.668Z,6.80
2023-11-05T23:33:00.267Z,7.20
2023-11-05T23:35:26.579Z,5.93
2023-11-05T23:37:52.842Z,3.57
2023-11-05T23:40:19.048Z,4.73
2023-11-05T23:42:45.243Z,3.27
2023-11-05T23:45:11.419Z,4.60
2023-11-05T23:47:37.673Z,4.87
2023-11-05T23:50:04.127Z,7.37
2023-11-05T23:52:30.396Z,5.30
2023-11-05T23:54:56.604Z,4.57
2023-11-05T23:57:24.565Z,4.43
2023-11-05T23:59:52.960Z,6.67
